Eureka, AK

11:41 PM AKDT on September 22, 2014 (GMT -0800)
AKDOT Glenn Highway @ Gunsight Mountain MP 11 | Change Station
CLOSE
Current Station
Personal Weather Station
Location: Tatitlek, AK
Elevation: 3234 ft
Nearby Weather Stations
Active Advisory: Areal Flood Advisory Active Notice: Record Report

Elev 3234 ft 61.83 °N, 147.41 °W | Updated 41 minutes ago

Overcast
Overcast
34 °F
Feels Like 34 °F
N
3
Wind Variable Wind from North
Gusts 4.0 mph

Today
High -- | Low -- °F
--% Chance of Precip.
Yesterday
High -- | Low -- °F
Precip. -- in
7:32 AM 7:48 PM
Waning Crescent, 1% visible
Pressure 29.89 in
Visibility 10.0 miles
Clouds Mostly Cloudy 6500 ft
Overcast 8000 ft
Windchill 34 °F
Dew Point 31 °F
Humidity 89%
Rainfall 0.01 in
Snow Depth 0 in , 2 in , 7 in
UV 0 out of 12
Pollen Not available.
Air Quality Not available.
Flu Activity Not available.
METAR PAGK 230653Z AUTO 01003KT 10SM BKN065 OVC080 03/02 A2983 RMK AO2 SLP120 T00330022 TSNO

More Conditions Fewer Conditions

Pressure 29.89 in
Visibility 10.0 miles
Clouds Mostly Cloudy 6500 ft
Overcast 8000 ft
Windchill 34 °F
Dew Point 31 °F
Humidity 89%
Rainfall 0.01 in
Snow Depth 0 in , 2 in , 7 in
UV 0 out of 12
Pollen Not available.
Air Quality Not available.
Flu Activity Not available.
METAR PAGK 230653Z AUTO 01003KT 10SM BKN065 OVC080 03/02 A2983 RMK AO2 SLP120 T00330022 TSNO

More Conditions Fewer Conditions

10-Day Weather Forecast

Almanac

Astronomy

Sep. 22, 2014 Rise Set
Actual Time 7:32 AM AKDT 7:48 PM AKDT
Civil Twilight 6:48 AM AKDT 8:32 PM AKDT
Nautical Twilight 5:54 AM AKDT 9:25 PM AKDT
Astronomical Twilight 4:54 AM AKDT 10:24 PM AKDT
Moon 5:54 AM AKDT (9/22) 7:07 PM AKDT (9/22)
Length of Visible Light 13h 43m
Length of Day
12h 15m
Tomorrow will be 5m 50s shorter.
Waning Crescent, 1% of the Moon is Illuminated
Sep 23
Waning Crescent
Sep 24
New
Oct 1
First Quarter
Oct 8
Full
Oct 15
Last Quarter

Community

WunderPhotos

Upload Photos

1,755,608 photos uploaded!

Nearby

Snow Depth

Station Depth Elevation
Long Lake 0 in 820 ft
Turnagain Pass 2 in 1880 ft
Port Graham 0 in 300 ft
Grouse Creek Divide 0 in 700 ft
Rocky Point 7 in 500 ft

Earthquake Activity

City Distance Mag. Time & Date
No recent earthquake activity has been reported nearby.
Minimum magnitude displayed is 2.5.

Coastal Water Temperatures

Place Temperature
No Stations Reporting

Nearby Weather Stations